createdAt,value
2023-05-19T00:00:58.996Z,9.52
2023-05-19T00:03:26.958Z,9.90
2023-05-19T00:05:54.222Z,10.00
2023-05-19T00:08:24.512Z,10.07
2023-05-19T00:10:51.134Z,7.57
2023-05-19T00:13:17.743Z,10.45
2023-05-19T00:15:44.418Z,11.82
2023-05-19T00:18:13.994Z,7.13
2023-05-19T00:20:41.329Z,10.65
2023-05-19T00:23:07.937Z,9.45
2023-05-19T00:25:34.521Z,10.52
2023-05-19T00:28:02.323Z,12.20
2023-05-19T00:30:29.702Z,7.65
2023-05-19T00:32:56.459Z,8.73
2023-05-19T00:35:26.021Z,7.57
2023-05-19T00:37:52.467Z,9.32
2023-05-19T00:40:19.255Z,6.88
2023-05-19T00:42:45.704Z,14.65
2023-05-19T00:45:12.105Z,10.40
2023-05-19T00:47:39.258Z,7.80
2023-05-19T00:50:06.016Z,9.73
2023-05-19T00:52:32.426Z,11.52
2023-05-19T00:54:59.496Z,8.75
2023-05-19T00:57:27.077Z,10.48
2023-05-19T00:59:53.743Z,9.07
2023-05-19T01:02:20.602Z,11.80
2023-05-19T01:04:47.702Z,10.07
2023-05-19T01:07:15.246Z,11.80
2023-05-19T01:09:41.922Z,9.15
2023-05-19T01:12:08.854Z,8.40
2023-05-19T01:14:35.285Z,10.15
2023-05-19T01:17:09.995Z,8.77
2023-05-19T01:20:14.148Z,9.77
2023-05-19T01:23:15.049Z,9.25
2023-05-19T01:26:12.807Z,8.32
2023-05-19T01:29:07.349Z,11.13
2023-05-19T01:31:35.602Z,8.10
2023-05-19T01:34:04.615Z,9.88
2023-05-19T01:36:33.492Z,9.02
2023-05-19T01:39:03.747Z,8.45
2023-05-19T01:41:32.428Z,9.68
2023-05-19T01:43:59.282Z,10.25
2023-05-19T01:46:25.856Z,7.80
2023-05-19T01:48:52.486Z,10.35
2023-05-19T01:51:18.972Z,8.77
2023-05-19T01:53:45.349Z,8.07
2023-05-19T01:56:16.156Z,8.45
2023-05-19T01:58:49.660Z,7.70
2023-05-19T02:01:28.838Z,9.18
2023-05-19T02:04:26.964Z,10.70
2023-05-19T02:07:10.282Z,8.95
2023-05-19T02:10:11.436Z,8.50
2023-05-19T02:12:40.634Z,8.88
2023-05-19T02:15:16.961Z,9.15
2023-05-19T02:17:48.390Z,10.10
2023-05-19T02:20:15.996Z,12.13
2023-05-19T02:22:42.567Z,7.97
2023-05-19T02:25:09.584Z,10.73
2023-05-19T02:27:37.797Z,11.00
2023-05-19T02:30:05.514Z,8.82
2023-05-19T02:32:32.855Z,10.27
2023-05-19T02:34:59.904Z,7.80
2023-05-19T02:37:28.575Z,8.95
2023-05-19T02:39:55.748Z,9.57
2023-05-19T02:42:23.259Z,7.38
2023-05-19T02:44:49.755Z,10.70
2023-05-19T02:47:16.209Z,17.02
2023-05-19T02:49:44.039Z,7.00
2023-05-19T02:52:10.580Z,9.52
2023-05-19T02:54:37.001Z,11.30
2023-05-19T02:57:03.604Z,8.75
2023-05-19T02:59:30.050Z,6.47
2023-05-19T03:02:00.078Z,10.50
2023-05-19T03:04:26.602Z,9.40
2023-05-19T03:06:54.033Z,9.98
2023-05-19T03:09:20.912Z,9.10
2023-05-19T03:11:47.269Z,8.00
2023-05-19T03:14:13.949Z,10.52
2023-05-19T03:16:42.165Z,6.95
2023-05-19T03:19:09.155Z,10.70
2023-05-19T03:21:35.616Z,9.45
2023-05-19T03:24:02.356Z,8.93
2023-05-19T03:26:29.272Z,11.23
2023-05-19T03:28:55.840Z,10.98
2023-05-19T03:31:22.377Z,9.60
2023-05-19T03:33:48.917Z,7.85
2023-05-19T03:36:15.275Z,15.27
2023-05-19T03:38:41.758Z,10.48
2023-05-19T03:41:08.141Z,8.48
2023-05-19T03:43:34.515Z,8.77
2023-05-19T03:46:02.106Z,8.52
2023-05-19T03:48:28.500Z,11.32
2023-05-19T03:50:55.579Z,9.10
2023-05-19T03:53:21.985Z,10.75
2023-05-19T03:55:49.594Z,6.50
2023-05-19T03:58:16.080Z,6.05
2023-05-19T04:00:42.660Z,9.10
2023-05-19T04:03:09.177Z,11.32
2023-05-19T04:05:35.746Z,7.88
2023-05-19T04:08:02.197Z,9.13
2023-05-19T04:10:28.936Z,8.40
2023-05-19T04:12:55.333Z,7.93
2023-05-19T04:15:21.771Z,11.18
2023-05-19T04:17:48.282Z,9.35
2023-05-19T04:20:14.738Z,10.38
2023-05-19T04:22:41.449Z,7.57
2023-05-19T04:25:08.730Z,12.35
2023-05-19T04:27:39.357Z,7.90
2023-05-19T04:30:06.437Z,5.93
2023-05-19T04:32:32.982Z,10.57
2023-05-19T04:34:59.668Z,14.27
2023-05-19T04:37:26.604Z,8.75
2023-05-19T04:39:54.135Z,10.07
2023-05-19T04:42:20.837Z,10.45
2023-05-19T04:44:49.306Z,9.25
2023-05-19T04:47:16.056Z,11.13
2023-05-19T04:49:42.903Z,7.85
2023-05-19T04:52:10.987Z,7.55
2023-05-19T04:54:38.610Z,8.73
2023-05-19T04:57:05.749Z,8.90
2023-05-19T04:59:32.428Z,8.45
2023-05-19T05:01:58.829Z,7.93
2023-05-19T05:04:25.975Z,6.10
2023-05-19T05:06:52.347Z,8.07
2023-05-19T05:09:19.782Z,7.22
2023-05-19T05:11:46.717Z,8.65
2023-05-19T05:14:13.493Z,7.45
2023-05-19T05:16:40.773Z,6.40
2023-05-19T05:19:07.604Z,6.40
2023-05-19T05:21:34.696Z,9.07
2023-05-19T05:24:01.427Z,8.43
2023-05-19T05:26:30.807Z,8.43
2023-05-19T05:28:57.216Z,6.60
2023-05-19T05:31:23.611Z,8.55
2023-05-19T05:33:50.269Z,10.05
2023-05-19T05:36:16.660Z,7.43
2023-05-19T05:38:43.090Z,9.05
2023-05-19T05:41:09.597Z,7.38
2023-05-19T05:43:36.002Z,8.80
2023-05-19T05:46:02.460Z,6.85
2023-05-19T05:48:29.172Z,6.07
2023-05-19T05:50:57.465Z,9.05
2023-05-19T05:53:25.603Z,9.13
2023-05-19T05:55:53.503Z,11.00
2023-05-19T05:58:21.208Z,6.68
2023-05-19T06:00:51.368Z,9.13
2023-05-19T06:03:17.948Z,9.70
2023-05-19T06:05:44.647Z,7.78
2023-05-19T06:08:11.132Z,9.38
2023-05-19T06:10:39.041Z,10.68
2023-05-19T06:13:05.524Z,6.00
2023-05-19T06:15:31.981Z,9.45
2023-05-19T06:17:59.000Z,6.22
2023-05-19T06:20:25.520Z,8.77
2023-05-19T06:22:52.015Z,7.53
2023-05-19T06:25:18.575Z,8.45
2023-05-19T06:27:44.948Z,7.55
2023-05-19T06:30:12.353Z,11.57
2023-05-19T06:32:39.035Z,13.02
2023-05-19T06:35:05.701Z,9.23
2023-05-19T06:37:32.061Z,8.82
2023-05-19T06:39:58.552Z,9.88
2023-05-19T06:42:25.371Z,9.90
2023-05-19T06:44:52.890Z,7.07
2023-05-19T06:47:19.561Z,7.90
2023-05-19T06:49:46.645Z,10.02
2023-05-19T06:52:13.371Z,9.82
2023-05-19T06:54:39.887Z,9.38
2023-05-19T06:57:06.356Z,9.82
2023-05-19T06:59:32.959Z,9.18
2023-05-19T07:01:59.394Z,8.68
2023-05-19T07:04:26.060Z,10.32
2023-05-19T07:06:53.369Z,7.07
2023-05-19T07:09:19.808Z,8.73
2023-05-19T07:11:46.825Z,7.72
2023-05-19T07:14:13.173Z,7.97
2023-05-19T07:16:39.638Z,7.13
2023-05-19T07:19:06.165Z,6.63
2023-05-19T07:21:32.631Z,8.15
2023-05-19T07:23:59.066Z,6.07
2023-05-19T07:26:26.276Z,7.25
2023-05-19T07:28:52.981Z,10.57
2023-05-19T07:31:19.493Z,8.05
2023-05-19T07:33:45.858Z,7.85
2023-05-19T07:36:12.522Z,9.05
2023-05-19T07:38:38.952Z,6.43
2023-05-19T07:41:05.710Z,6.75
2023-05-19T07:43:32.152Z,6.57
2023-05-19T07:45:58.656Z,6.57
2023-05-19T07:48:25.868Z,8.63
2023-05-19T07:50:53.026Z,5.70
2023-05-19T07:53:20.134Z,6.10
2023-05-19T07:55:46.912Z,5.57
2023-05-19T07:58:13.354Z,6.82
2023-05-19T08:00:41.087Z,8.50
2023-05-19T08:03:07.986Z,6.90
2023-05-19T08:05:35.572Z,9.45
2023-05-19T08:08:02.769Z,4.65
2023-05-19T08:10:29.472Z,6.78
2023-05-19T08:12:55.908Z,8.25
2023-05-19T08:15:22.403Z,7.28
2023-05-19T08:17:48.824Z,7.30
2023-05-19T08:20:15.256Z,6.85
2023-05-19T08:22:41.635Z,7.05
2023-05-19T08:25:08.383Z,5.03
2023-05-19T08:27:35.007Z,9.65
2023-05-19T08:30:01.425Z,7.28
2023-05-19T08:32:27.836Z,7.18
2023-05-19T08:34:54.241Z,5.25
2023-05-19T08:37:20.808Z,6.90
2023-05-19T08:39:47.412Z,4.97
2023-05-19T08:42:13.930Z,7.93
2023-05-19T08:44:42.079Z,6.82
2023-05-19T08:47:13.242Z,5.35
2023-05-19T08:49:47.579Z,7.45
2023-05-19T08:52:50.267Z,6.45
2023-05-19T08:55:34.312Z,6.07
2023-05-19T08:58:03.387Z,6.82
2023-05-19T09:00:29.964Z,7.18
2023-05-19T09:03:10.807Z,8.32
2023-05-19T09:05:44.050Z,6.00
2023-05-19T09:08:10.705Z,11.02
2023-05-19T09:10:37.121Z,8.35
2023-05-19T09:13:05.646Z,5.47
2023-05-19T09:15:34.108Z,6.68
2023-05-19T09:18:15.302Z,7.63
2023-05-19T09:20:47.091Z,6.95
2023-05-19T09:23:15.859Z,8.32
2023-05-19T09:25:50.087Z,5.53
2023-05-19T09:28:28.036Z,5.53
2023-05-19T09:31:09.161Z,3.70
2023-05-19T09:33:45.556Z,5.15
2023-05-19T09:36:12.715Z,5.57
2023-05-19T09:38:39.945Z,4.85
2023-05-19T09:41:07.582Z,5.97
2023-05-19T09:43:34.799Z,4.63
2023-05-19T09:46:09.195Z,7.32
2023-05-19T09:48:37.536Z,5.18
2023-05-19T09:51:06.283Z,4.55
2023-05-19T09:53:34.510Z,2.70
2023-05-19T09:56:02.207Z,3.47
2023-05-19T09:58:35.089Z,6.13
2023-05-19T10:01:03.219Z,6.55
2023-05-19T10:03:32.535Z,5.47
2023-05-19T10:06:01.337Z,4.18
2023-05-19T10:08:30.415Z,4.38
2023-05-19T10:10:57.697Z,3.42
2023-05-19T10:13:24.254Z,3.42
2023-05-19T10:18:22.997Z,5.30
2023-05-19T10:20:50.175Z,4.25
2023-05-19T10:23:16.718Z,3.70
2023-05-19T10:25:43.731Z,4.35
2023-05-19T10:28:14.862Z,3.83
2023-05-19T10:30:46.307Z,4.47
2023-05-19T10:33:17.470Z,5.85
2023-05-19T10:36:13.894Z,3.83
2023-05-19T10:38:48.256Z,4.85
2023-05-19T10:41:33.051Z,4.32
2023-05-19T10:44:14.018Z,5.28
2023-05-19T10:46:41.300Z,5.97
2023-05-19T10:49:08.050Z,4.68
2023-05-19T10:51:36.033Z,4.38
2023-05-19T10:54:03.920Z,4.43
2023-05-19T10:56:36.311Z,3.53
2023-05-19T10:59:03.532Z,4.82
2023-05-19T11:01:33.281Z,4.05
2023-05-19T11:04:12.313Z,4.90
2023-05-19T11:06:40.300Z,3.22
2023-05-19T11:09:14.028Z,2.97
2023-05-19T11:11:52.075Z,4.55
2023-05-19T11:14:24.108Z,4.68
2023-05-19T11:16:52.552Z,3.60
2023-05-19T11:19:29.869Z,5.63
2023-05-19T11:21:57.358Z,5.70
2023-05-19T11:24:33.939Z,5.95
2023-05-19T11:27:00.308Z,5.97
2023-05-19T11:29:27.823Z,3.33
2023-05-19T11:31:54.569Z,5.35
2023-05-19T11:34:21.152Z,4.03
2023-05-19T11:36:48.170Z,3.38
2023-05-19T11:39:15.277Z,9.07
2023-05-19T11:41:41.760Z,4.22
2023-05-19T11:44:11.890Z,4.20
2023-05-19T11:46:38.511Z,3.75
2023-05-19T11:49:05.656Z,3.25
2023-05-19T11:51:33.525Z,5.28
2023-05-19T11:54:01.580Z,5.07
2023-05-19T11:56:33.205Z,3.30
2023-05-19T11:58:59.560Z,5.70
2023-05-19T12:01:26.952Z,4.13
2023-05-19T12:03:53.563Z,3.90
2023-05-19T12:06:20.299Z,3.75
2023-05-19T12:08:46.988Z,2.50
2023-05-19T12:11:14.195Z,4.15
2023-05-19T12:13:40.707Z,4.60
2023-05-19T12:16:08.954Z,4.60
2023-05-19T12:18:40.209Z,4.80
2023-05-19T12:21:06.718Z,3.35
2023-05-19T12:23:33.739Z,3.85
2023-05-19T12:26:00.865Z,5.20
2023-05-19T12:28:31.116Z,2.78
2023-05-19T12:30:58.463Z,6.22
2023-05-19T12:33:25.285Z,4.78
2023-05-19T12:35:51.690Z,4.50
2023-05-19T12:38:19.463Z,4.07
2023-05-19T12:40:45.929Z,3.60
2023-05-19T12:43:25.651Z,4.40
2023-05-19T12:45:52.355Z,4.05
2023-05-19T12:48:22.599Z,2.85
2023-05-19T12:50:52.764Z,3.70
2023-05-19T12:53:19.298Z,3.25
2023-05-19T12:55:45.854Z,5.68
2023-05-19T12:58:12.578Z,3.08
2023-05-19T13:00:47.810Z,3.78
2023-05-19T13:03:19.666Z,4.75
2023-05-19T13:05:48.328Z,4.22
2023-05-19T13:08:17.153Z,6.68
2023-05-19T13:10:46.205Z,2.20
2023-05-19T13:13:13.355Z,3.33
2023-05-19T13:15:45.446Z,3.45
2023-05-19T13:18:13.338Z,3.05
2023-05-19T13:20:41.216Z,2.80
2023-05-19T13:23:09.982Z,4.28
2023-05-19T13:25:36.787Z,2.75
2023-05-19T13:28:05.535Z,3.80
2023-05-19T13:30:37.058Z,3.08
2023-05-19T13:33:03.969Z,4.35
2023-05-19T13:35:36.713Z,4.43
2023-05-19T13:38:07.840Z,3.53
2023-05-19T13:40:34.978Z,2.45
2023-05-19T13:43:02.961Z,2.17
2023-05-19T13:45:29.865Z,2.38
2023-05-19T13:47:56.910Z,2.25
2023-05-19T13:50:23.642Z,5.20
2023-05-19T13:52:50.048Z,4.72
2023-05-19T13:55:16.582Z,3.67
2023-05-19T13:57:44.214Z,1.83
2023-05-19T14:00:11.462Z,3.70
2023-05-19T14:02:38.165Z,3.38
2023-05-19T14:05:06.506Z,2.30
2023-05-19T14:07:34.716Z,3.60
2023-05-19T14:10:02.073Z,2.47
2023-05-19T14:12:37.211Z,5.50
2023-05-19T14:15:07.072Z,3.63
2023-05-19T14:17:34.360Z,1.83
2023-05-19T14:20:01.302Z,4.47
2023-05-19T14:22:27.717Z,3.90
2023-05-19T14:24:54.086Z,4.20
2023-05-19T14:27:20.536Z,3.00
2023-05-19T14:29:48.771Z,2.63
2023-05-19T14:32:15.560Z,8.13
2023-05-19T14:34:42.066Z,2.60
2023-05-19T14:37:08.409Z,2.88
2023-05-19T14:39:34.784Z,6.35
2023-05-19T14:42:01.243Z,3.83
2023-05-19T14:44:32.817Z,3.33
2023-05-19T14:47:01.163Z,3.15
2023-05-19T14:49:27.622Z,4.32
2023-05-19T14:51:54.036Z,3.65
2023-05-19T14:54:20.456Z,3.15
2023-05-19T14:56:46.884Z,2.28
2023-05-19T14:59:13.260Z,2.17
2023-05-19T15:01:39.847Z,2.45
2023-05-19T15:04:06.401Z,2.63
2023-05-19T15:06:33.137Z,3.35
2023-05-19T15:08:59.562Z,5.30
2023-05-19T15:11:26.122Z,4.32
2023-05-19T15:13:52.626Z,2.75
2023-05-19T15:16:18.991Z,2.55
2023-05-19T15:18:45.474Z,4.55
2023-05-19T15:21:12.254Z,3.50
2023-05-19T15:23:38.661Z,2.78
2023-05-19T15:26:05.070Z,2.55
2023-05-19T15:28:32.108Z,4.47
2023-05-19T15:30:58.501Z,2.13
2023-05-19T15:33:24.854Z,3.08
2023-05-19T15:35:52.220Z,3.72
2023-05-19T15:38:19.444Z,2.63
2023-05-19T15:40:46.665Z,3.15
2023-05-19T15:43:13.264Z,4.25
2023-05-19T15:45:39.735Z,2.88
2023-05-19T15:48:06.400Z,1.98
2023-05-19T15:50:33.062Z,1.85
2023-05-19T15:52:59.639Z,2.28
2023-05-19T15:55:26.005Z,4.15
2023-05-19T15:57:52.402Z,5.72
2023-05-19T16:00:18.981Z,2.90
2023-05-19T16:02:45.485Z,3.15
2023-05-19T16:05:12.086Z,3.08
2023-05-19T16:07:38.453Z,3.85
2023-05-19T16:10:05.390Z,3.55
2023-05-19T16:12:31.918Z,2.70
2023-05-19T16:14:58.351Z,3.83
2023-05-19T16:17:24.760Z,2.30
2023-05-19T16:19:51.266Z,4.70
2023-05-19T16:22:18.210Z,3.80
2023-05-19T16:24:44.902Z,2.95
2023-05-19T16:27:11.455Z,4.28
2023-05-19T16:29:37.851Z,2.92
2023-05-19T16:32:04.460Z,4.80
2023-05-19T16:34:31.045Z,1.63
2023-05-19T16:36:57.452Z,2.17
2023-05-19T16:39:23.799Z,3.28
2023-05-19T16:41:50.318Z,1.77
2023-05-19T16:44:18.322Z,2.78
2023-05-19T16:46:44.761Z,2.83
2023-05-19T16:49:11.291Z,3.13
2023-05-19T16:51:37.716Z,2.60
2023-05-19T16:54:04.055Z,2.35
2023-05-19T16:56:30.634Z,3.30
2023-05-19T16:58:56.999Z,4.20
2023-05-19T17:01:23.524Z,1.63
2023-05-19T17:03:50.018Z,2.20
2023-05-19T17:06:16.432Z,2.72
2023-05-19T17:08:42.847Z,2.38
2023-05-19T17:11:09.450Z,6.03
2023-05-19T17:13:36.582Z,5.00
2023-05-19T17:16:03.108Z,3.05
2023-05-19T17:18:31.185Z,3.20
2023-05-19T17:20:59.236Z,3.28
2023-05-19T17:23:25.713Z,3.00
2023-05-19T17:25:55.038Z,3.80
2023-05-19T17:28:21.483Z,2.92
2023-05-19T17:30:47.885Z,2.45
2023-05-19T17:33:14.382Z,5.55
2023-05-19T17:35:41.499Z,3.33
2023-05-19T17:38:07.940Z,2.65
2023-05-19T17:40:35.001Z,2.42
2023-05-19T17:43:01.665Z,4.20
2023-05-19T17:45:28.070Z,2.00
2023-05-19T17:47:54.566Z,4.53
2023-05-19T17:50:20.977Z,2.92
2023-05-19T17:52:47.659Z,3.95
2023-05-19T17:55:14.488Z,1.98
2023-05-19T17:57:44.973Z,3.47
2023-05-19T18:00:12.511Z,3.00
2023-05-19T18:02:58.171Z,3.42
2023-05-19T18:05:25.200Z,2.13
2023-05-19T18:07:53.632Z,2.35
2023-05-19T18:10:20.436Z,3.08
2023-05-19T18:12:46.852Z,1.90
2023-05-19T18:15:13.241Z,3.30
2023-05-19T18:17:39.744Z,1.95
2023-05-19T18:20:07.450Z,2.10
2023-05-19T18:22:33.827Z,2.47
2023-05-19T18:25:00.287Z,3.83
2023-05-19T18:27:27.845Z,3.17
2023-05-19T18:29:54.239Z,2.90
2023-05-19T18:32:20.765Z,2.25
2023-05-19T18:34:47.620Z,2.63
2023-05-19T18:37:14.000Z,2.28
2023-05-19T18:39:40.437Z,1.98
2023-05-19T18:42:06.851Z,3.45
2023-05-19T18:44:33.888Z,2.65
2023-05-19T18:47:00.347Z,2.40
2023-05-19T18:49:26.738Z,2.58
2023-05-19T18:51:53.189Z,4.63
2023-05-19T18:54:21.591Z,3.20
2023-05-19T18:56:48.070Z,2.90
2023-05-19T18:59:14.433Z,3.35
2023-05-19T19:01:41.011Z,3.10
2023-05-19T19:04:07.730Z,2.97
2023-05-19T19:06:34.371Z,3.63
2023-05-19T19:09:00.921Z,5.10
2023-05-19T19:11:27.560Z,2.58
2023-05-19T19:13:55.884Z,3.20
2023-05-19T19:16:22.460Z,1.83
2023-05-19T19:18:49.009Z,1.80
2023-05-19T19:21:15.454Z,3.78
2023-05-19T19:23:41.823Z,2.28
2023-05-19T19:26:09.460Z,5.43
2023-05-19T19:28:36.353Z,4.75
2023-05-19T19:31:02.821Z,3.22
2023-05-19T19:33:29.515Z,4.22
2023-05-19T19:35:55.988Z,4.28
2023-05-19T19:38:22.333Z,3.60
2023-05-19T19:40:51.384Z,2.35
2023-05-19T19:43:17.962Z,2.95
2023-05-19T19:45:44.391Z,3.47
2023-05-19T19:48:11.896Z,4.68
2023-05-19T19:50:38.527Z,3.38
2023-05-19T19:53:05.011Z,3.47
2023-05-19T19:55:31.775Z,2.63
2023-05-19T19:57:58.151Z,4.03
2023-05-19T20:00:24.605Z,4.22
2023-05-19T20:03:04.501Z,3.05
2023-05-19T20:05:31.752Z,3.95
2023-05-19T20:07:58.213Z,5.00
2023-05-19T20:10:24.629Z,3.20
2023-05-19T20:12:51.270Z,4.07
2023-05-19T20:15:17.886Z,3.72
2023-05-19T20:17:44.357Z,3.00
2023-05-19T20:20:12.204Z,2.78
2023-05-19T20:22:39.074Z,3.70
2023-05-19T20:25:06.000Z,2.42
2023-05-19T20:27:32.421Z,4.43
2023-05-19T20:29:58.806Z,4.97
2023-05-19T20:32:25.454Z,2.10
2023-05-19T20:34:51.945Z,6.47
2023-05-19T20:37:18.396Z,2.40
2023-05-19T20:39:44.786Z,5.05
2023-05-19T20:42:11.286Z,3.38
2023-05-19T20:44:37.699Z,3.10
2023-05-19T20:47:04.346Z,3.03
2023-05-19T20:49:30.793Z,3.45
2023-05-19T20:51:57.180Z,3.13
2023-05-19T20:54:23.590Z,4.20
2023-05-19T20:56:51.740Z,3.28
2023-05-19T20:59:18.172Z,5.18
2023-05-19T21:01:45.631Z,3.00
2023-05-19T21:04:12.113Z,2.30
2023-05-19T21:06:38.795Z,2.38
2023-05-19T21:09:06.680Z,2.42
2023-05-19T21:11:34.043Z,3.30
2023-05-19T21:14:03.866Z,2.50
2023-05-19T21:16:30.903Z,6.35
2023-05-19T21:18:57.461Z,3.42
2023-05-19T21:21:23.855Z,3.72
2023-05-19T21:23:50.332Z,2.35
2023-05-19T21:26:16.865Z,4.75
2023-05-19T21:28:43.228Z,3.97
2023-05-19T21:31:09.697Z,3.35
2023-05-19T21:33:36.461Z,4.55
2023-05-19T21:36:02.865Z,2.67
2023-05-19T21:38:29.266Z,9.68
2023-05-19T21:40:55.735Z,4.03
2023-05-19T21:43:22.405Z,5.38
2023-05-19T21:45:48.921Z,4.05
2023-05-19T21:48:15.518Z,5.55
2023-05-19T21:50:41.975Z,3.28
2023-05-19T21:53:08.365Z,4.05
2023-05-19T21:55:34.895Z,6.07
2023-05-19T21:58:02.588Z,3.03
2023-05-19T22:00:29.294Z,3.13
2023-05-19T22:02:55.943Z,4.15
2023-05-19T22:05:22.434Z,4.30
2023-05-19T22:07:48.914Z,4.85
2023-05-19T22:10:15.320Z,3.50
2023-05-19T22:12:41.671Z,4.18
2023-05-19T22:15:08.777Z,3.60
2023-05-19T22:17:35.170Z,4.82
2023-05-19T22:20:01.562Z,5.22
2023-05-19T22:22:28.164Z,5.07
2023-05-19T22:24:54.589Z,3.45
2023-05-19T22:27:20.953Z,4.85
2023-05-19T22:29:47.379Z,3.42
2023-05-19T22:32:14.043Z,5.70
2023-05-19T22:34:40.798Z,3.20
2023-05-19T22:37:07.274Z,4.90
2023-05-19T22:39:33.640Z,4.20
2023-05-19T22:42:00.029Z,5.28
2023-05-19T22:44:26.506Z,6.32
2023-05-19T22:46:52.889Z,4.25
2023-05-19T22:49:20.923Z,3.60
2023-05-19T22:51:47.284Z,4.22
2023-05-19T22:54:13.696Z,3.47
2023-05-19T22:56:44.360Z,4.72
2023-05-19T22:59:11.846Z,5.65
2023-05-19T23:01:38.238Z,4.63
2023-05-19T23:04:04.952Z,5.75
2023-05-19T23:06:31.458Z,3.95
2023-05-19T23:09:00.570Z,6.18
2023-05-19T23:11:27.132Z,3.95
2023-05-19T23:13:53.565Z,3.67
2023-05-19T23:16:20.003Z,3.75
2023-05-19T23:18:46.422Z,2.90
2023-05-19T23:21:13.153Z,3.42
2023-05-19T23:23:39.583Z,4.22
2023-05-19T23:26:06.060Z,6.43
2023-05-19T23:28:32.447Z,5.80
2023-05-19T23:30:58.891Z,5.57
2023-05-19T23:33:25.299Z,5.07
2023-05-19T23:35:51.709Z,5.10
2023-05-19T23:38:18.080Z,4.25
2023-05-19T23:40:44.480Z,4.78
2023-05-19T23:43:10.895Z,3.58
2023-05-19T23:45:37.307Z,3.97
2023-05-19T23:48:03.979Z,5.13
2023-05-19T23:50:30.401Z,4.05
2023-05-19T23:52:56.771Z,4.28
2023-05-19T23:55:23.377Z,7.35
2023-05-19T23:57:49.777Z,5.78
